Time;durP1;ratioP1;P1;durP2;ratioP2;P2;SDS_P1;SDS_P2;PMS_P1;PMS_P2;Temp;Humidity;BMP_temperature;BMP_pressure;BME280_temperature;BME280_humidity;BME280_pressure;Samples;Min_cycle;Max_cycle;Signal;HPM_P1;HPM_P2
2022/03/27 00:00:46;;;;;;;24.67;11.25;;;2.40;99.90;;;0.94;100.00;102670.75;4953613;28;20088;-74
2022/03/27 00:03:12;;;;;;;28.75;10.68;;;2.50;99.90;;;0.90;100.00;102668.91;4985718;28;20038;-73
2022/03/27 00:05:38;;;;;;;23.08;10.00;;;2.50;99.90;;;0.98;100.00;102670.00;4970998;28;20030;-73
2022/03/27 00:08:04;;;;;;;17.15;8.52;;;2.50;99.90;;;1.01;100.00;102670.91;4971109;28;20023;-73
2022/03/27 00:11:23;;;;;;;15.07;8.38;;;2.60;99.90;;;1.12;100.00;102672.91;4962111;28;20054;-73
2022/03/27 00:13:17;;;;;;;21.27;8.38;;;2.70;99.90;;;1.17;100.00;102676.50;4965671;28;20170;-73
2022/03/27 00:15:42;;;;;;;17.30;7.95;;;2.80;99.90;;;1.19;100.00;102680.00;4984102;28;20026;-74
2022/03/27 00:18:08;;;;;;;18.65;9.27;;;2.80;99.90;;;1.29;100.00;102668.09;4969687;28;20109;-74
2022/03/27 00:20:34;;;;;;;18.75;7.70;;;2.80;99.90;;;1.28;100.00;102679.34;4969847;28;20034;-74
2022/03/27 00:23:01;;;;;;;21.38;7.38;;;2.80;99.90;;;1.27;100.00;102681.03;4968522;28;20030;-74
2022/03/27 00:25:27;;;;;;;16.75;7.72;;;2.80;99.90;;;1.32;100.00;102682.03;4959371;28;20411;-74
2022/03/27 00:27:53;;;;;;;19.98;8.75;;;2.80;99.90;;;1.26;100.00;102681.91;4962914;28;20046;-74
2022/03/27 00:30:19;;;;;;;23.10;10.35;;;2.80;99.90;;;1.09;100.00;102694.47;4969956;28;20046;-73
2022/03/27 00:32:45;;;;;;;22.25;9.88;;;2.70;99.90;;;0.94;100.00;102694.97;4971909;28;20073;-73
2022/03/27 00:35:11;;;;;;;23.75;11.32;;;2.60;99.90;;;0.88;100.00;102694.81;4972530;28;20410;-74
2022/03/27 00:37:37;;;;;;;23.80;11.00;;;2.40;99.90;;;0.76;100.00;102690.22;4973301;28;20050;-74
2022/03/27 00:40:04;;;;;;;24.55;11.63;;;2.40;99.90;;;0.66;100.00;102683.03;4964897;28;20033;-74
2022/03/27 00:42:30;;;;;;;28.58;11.13;;;2.20;99.90;;;0.56;100.00;102691.41;4971093;28;20027;-74
2022/03/27 00:44:56;;;;;;;26.10;10.82;;;2.20;99.90;;;0.50;100.00;102696.44;4987622;28;20029;-73
2022/03/27 00:47:22;;;;;;;25.02;11.68;;;2.00;99.90;;;0.32;100.00;102702.00;4964992;28;20022;-73
2022/03/27 00:49:48;;;;;;;24.58;10.73;;;2.00;99.90;;;0.30;100.00;102695.88;4965749;28;20054;-74
2022/03/27 00:52:14;;;;;;;24.00;11.70;;;1.90;99.90;;;0.22;100.00;102684.44;4971849;28;20030;-74
2022/03/27 00:54:40;;;;;;;25.58;11.95;;;1.80;99.90;;;0.14;100.00;102698.06;4975776;28;20439;-73
2022/03/27 00:57:07;;;;;;;24.77;11.73;;;1.80;99.90;;;0.08;100.00;102703.06;4965859;28;20509;-73
2022/03/27 00:59:33;;;;;;;23.38;11.98;;;1.70;99.90;;;0.06;100.00;102703.84;4964643;28;20105;-73
2022/03/27 01:02:01;;;;;;;31.25;12.45;;;1.60;99.90;;;-0.01;100.00;102698.50;4972452;28;20050;-73
2022/03/27 01:04:28;;;;;;;20.77;10.65;;;1.60;99.90;;;-0.11;100.00;102704.28;4966944;28;20553;-74
2022/03/27 01:06:55;;;;;;;23.10;10.88;;;1.50;99.90;;;-0.19;100.00;102699.66;4988608;28;20026;-74
2022/03/27 01:09:36;;;;;;;30.90;13.27;;;1.40;99.90;;;-0.27;100.00;102697.75;4964343;28;20062;-73
2022/03/27 01:12:17;;;;;;;31.60;16.00;;;1.40;99.90;;;-0.28;100.00;102702.88;4971369;28;20026;-74
2022/03/27 01:14:45;;;;;;;35.92;14.73;;;1.40;99.90;;;-0.25;100.00;102705.56;4972147;28;20030;-74
2022/03/27 01:17:19;;;;;;;28.52;14.68;;;1.40;99.90;;;-0.27;100.00;102700.31;4971960;28;20105;-73
2022/03/27 01:19:52;;;;;;;28.67;15.52;;;1.40;99.90;;;-0.26;100.00;102696.94;4970092;28;20018;-73
2022/03/27 01:22:19;;;;;;;31.65;15.70;;;1.40;99.90;;;-0.26;100.00;102691.75;4968540;28;20604;-73
2022/03/27 01:24:48;;;;;;;33.03;15.60;;;1.40;99.90;;;-0.24;100.00;102696.94;4963049;28;20118;-73
2022/03/27 01:27:14;;;;;;;30.98;15.45;;;1.40;99.90;;;-0.23;100.00;102701.31;4972328;28;20030;-74
2022/03/27 01:29:40;;;;;;;33.92;13.13;;;1.40;99.90;;;-0.27;100.00;102694.28;4971002;28;20530;-73
2022/03/27 01:32:11;;;;;;;426.50;20.88;;;1.30;99.90;;;-0.40;100.00;102693.03;4964240;28;20089;-73
2022/03/27 01:34:37;;;;;;;28.17;12.93;;;1.20;99.90;;;-0.52;100.00;102701.31;4965505;28;20039;-73
2022/03/27 01:37:11;;;;;;;38.22;14.05;;;1.10;99.90;;;-0.63;100.00;102698.41;4964493;28;20031;-73
2022/03/27 01:39:38;;;;;;;727.17;27.45;;;1.00;99.90;;;-0.69;100.00;102695.63;4973595;28;20035;-75
2022/03/27 01:42:05;;;;;;;571.22;27.48;;;1.00;99.90;;;-0.72;100.00;102694.63;4966437;28;20030;-73
2022/03/27 01:44:33;;;;;;;529.92;20.70;;;0.90;99.90;;;-0.76;100.00;102704.00;4967125;28;20026;-74
2022/03/27 01:46:59;;;;;;;403.05;17.75;;;0.90;99.90;;;-0.81;100.00;102708.16;4971441;28;20731;-74
2022/03/27 01:49:26;;;;;;;250.35;17.63;;;0.80;99.90;;;-0.87;100.00;102701.06;4972131;28;21165;-74
2022/03/27 01:51:53;;;;;;;346.55;21.67;;;0.80;99.90;;;-0.91;100.00;102696.63;4972586;28;20043;-74
2022/03/27 01:54:19;;;;;;;24.08;13.77;;;0.80;99.90;;;-0.89;100.00;102692.38;4963317;28;20035;-73
2022/03/27 01:56:46;;;;;;;615.47;28.00;;;0.80;99.90;;;-0.91;100.00;102687.97;4972213;28;20593;-73
2022/03/27 01:59:12;;;;;;;354.67;27.98;;;0.80;99.90;;;-0.98;100.00;102694.66;4974924;28;20054;-74
2022/03/27 02:01:39;;;;;;;48.95;16.75;;;0.70;99.90;;;-0.96;100.00;102692.16;4973598;28;20026;-73
2022/03/27 02:04:06;;;;;;;24.20;14.10;;;0.70;99.90;;;-0.92;100.00;102691.41;4971259;28;20426;-72
2022/03/27 02:06:39;;;;;;;714.90;35.42;;;0.70;99.90;;;-0.90;100.00;102692.34;4962964;28;20031;-73
2022/03/27 02:09:06;;;;;;;29.30;14.75;;;0.70;99.90;;;-0.89;100.00;102678.56;4969302;28;20501;-73
2022/03/27 02:11:33;;;;;;;33.67;14.02;;;0.70;99.90;;;-0.91;100.00;102688.84;4971632;28;20048;-73
2022/03/27 02:13:59;;;;;;;26.90;13.70;;;0.70;99.90;;;-0.96;100.00;102686.97;4971691;28;20505;-73
2022/03/27 02:16:25;;;;;;;32.78;16.52;;;0.70;99.90;;;-0.99;100.00;102686.84;4978601;28;20035;-74
2022/03/27 02:18:51;;;;;;;342.45;22.58;;;0.60;99.90;;;-1.04;100.00;102677.28;4963574;28;20567;-73
2022/03/27 02:21:17;;;;;;;20.60;13.10;;;0.60;99.90;;;-1.09;100.00;102668.47;4961212;28;20037;-73
2022/03/27 02:23:43;;;;;;;33.17;14.95;;;0.50;99.90;;;-1.16;100.00;102670.81;4962758;28;20114;-73
2022/03/27 02:26:09;;;;;;;18.42;11.73;;;0.50;99.90;;;-1.22;100.00;102670.59;4969788;28;20027;-73
2022/03/27 02:28:35;;;;;;;20.02;12.45;;;0.40;99.90;;;-1.30;100.00;102672.94;4962624;28;20022;-73
2022/03/27 02:31:02;;;;;;;28.85;14.60;;;0.30;99.90;;;-1.35;100.00;102670.19;4972833;28;20059;-73
2022/03/27 02:33:29;;;;;;;27.45;14.82;;;0.30;99.90;;;-1.41;100.00;102669.09;4969783;28;20189;-73
2022/03/27 02:35:55;;;;;;;31.88;14.73;;;0.30;99.90;;;-1.51;100.00;102666.22;4971345;28;20036;-74
2022/03/27 02:38:22;;;;;;;26.75;14.38;;;0.30;99.90;;;-1.48;100.00;102671.47;4968471;28;20034;-73
2022/03/27 02:40:48;;;;;;;27.60;15.52;;;0.30;99.90;;;-1.42;100.00;102668.25;4981877;28;20499;-73
2022/03/27 02:43:15;;;;;;;34.20;18.15;;;0.30;99.90;;;-1.39;100.00;102658.00;4971046;28;20034;-73
2022/03/27 02:45:41;;;;;;;122.43;18.52;;;0.30;99.90;;;-1.40;100.00;102665.69;4971147;28;20030;-73
2022/03/27 02:48:08;;;;;;;953.20;36.47;;;0.30;99.90;;;-1.42;100.00;102667.38;4971537;28;20383;-73
2022/03/27 02:50:38;;;;;;;431.33;21.70;;;0.30;99.90;;;-1.49;100.00;102668.84;4962453;28;20053;-72
2022/03/27 02:53:06;;;;;;;707.05;27.80;;;0.10;99.90;;;-1.60;100.00;102670.19;4963406;28;20061;-74
2022/03/27 02:55:32;;;;;;;339.98;18.33;;;0.10;99.90;;;-1.63;100.00;102668.38;4969186;28;20055;-73
2022/03/27 02:57:59;;;;;;;525.38;25.50;;;0.10;99.90;;;-1.66;100.00;102670.88;4970509;28;20057;-73
2022/03/27 03:00:25;;;;;;;294.50;18.48;;;0.00;99.90;;;-1.69;100.00;102665.56;4986647;28;20391;-74
2022/03/27 03:02:53;;;;;;;668.05;30.80;;;0.00;99.90;;;-1.69;100.00;102663.84;4986942;28;20018;-73
2022/03/27 03:05:19;;;;;;;416.48;24.20;;;0.00;99.90;;;-1.68;100.00;102667.34;4970965;28;20034;-73
2022/03/27 03:07:46;;;;;;;324.48;23.15;;;0.00;99.90;;;-1.66;100.00;102670.88;4962324;28;20208;-74
2022/03/27 03:10:16;;;;;;;115.72;19.75;;;0.00;99.90;;;-1.66;100.00;102661.41;4970106;28;20514;-73
2022/03/27 03:12:43;;;;;;;890.25;41.55;;;0.00;99.90;;;-1.60;100.00;102662.44;4944166;28;20105;-73
2022/03/27 03:15:10;;;;;;;677.15;41.20;;;0.10;99.90;;;-1.53;100.00;102670.47;4953315;28;20731;-73
2022/03/27 03:17:37;;;;;;;94.05;23.50;;;0.20;99.90;;;-1.47;100.00;102675.84;4970256;28;20022;-74
2022/03/27 03:20:04;;;;;;;87.65;18.80;;;0.20;99.90;;;-1.46;100.00;102668.97;4968933;28;20027;-74
2022/03/27 03:22:31;;;;;;;236.60;23.38;;;0.20;99.90;;;-1.46;100.00;102679.28;4961492;28;20053;-73
2022/03/27 03:24:57;;;;;;;34.97;19.00;;;0.20;99.90;;;-1.45;100.00;102678.44;4969537;28;20029;-73
2022/03/27 03:27:23;;;;;;;66.40;20.27;;;0.20;99.90;;;-1.45;100.00;102670.69;4970729;28;20062;-73
2022/03/27 03:29:49;;;;;;;838.28;35.15;;;0.10;99.90;;;-1.60;100.00;102665.88;4986681;28;20470;-73
2022/03/27 03:32:15;;;;;;;1159.13;31.85;;;0.00;99.90;;;-1.76;100.00;102671.34;4962571;28;20054;-73
2022/03/27 03:34:42;;;;;;;160.35;11.90;;;-0.10;99.90;;;-1.89;100.00;102670.91;4966921;28;20063;-73
2022/03/27 03:37:08;;;;;;;95.60;12.88;;;-0.20;99.90;;;-1.98;100.00;102669.72;4973398;28;20055;-73
2022/03/27 03:39:35;;;;;;;429.83;20.45;;;-0.20;99.90;;;-2.02;100.00;102667.84;4971890;28;20204;-73
2022/03/27 03:42:01;;;;;;;772.67;39.30;;;-0.30;99.90;;;-2.06;100.00;102659.97;4971057;28;20031;-73
2022/03/27 03:44:26;;;;;;;79.82;17.17;;;-0.30;99.90;;;-2.00;100.00;102658.47;4962719;28;20022;-73
2022/03/27 03:46:53;;;;;;;30.60;15.60;;;-0.30;99.90;;;-1.96;100.00;102671.53;4970059;28;20106;-74
2022/03/27 03:49:20;;;;;;;87.40;22.23;;;-0.30;99.90;;;-1.92;100.00;102668.22;4968801;28;20092;-74
2022/03/27 03:51:47;;;;;;;55.08;22.02;;;-0.20;99.90;;;-1.84;100.00;102667.63;4981526;28;20085;-73
2022/03/27 03:54:13;;;;;;;50.97;22.35;;;-0.20;99.90;;;-1.77;100.00;102661.84;4965128;28;20425;-74
2022/03/27 03:56:39;;;;;;;57.45;22.98;;;-0.10;99.90;;;-1.69;100.00;102666.44;4958428;28;20027;-74
2022/03/27 03:59:05;;;;;;;55.80;20.42;;;0.00;99.90;;;-1.61;100.00;102666.72;4961930;28;20042;-74
2022/03/27 04:01:31;;;;;;;54.05;19.60;;;0.10;99.90;;;-1.54;100.00;102667.81;4977229;28;20030;-73
2022/03/27 04:03:57;;;;;;;50.92;22.27;;;0.90;99.90;;;-1.46;100.00;102668.97;4970039;28;20026;-74
2022/03/27 04:06:23;;;;;;;49.38;21.10;;;0.20;99.90;;;-1.40;100.00;102670.84;4977582;28;20545;-74
2022/03/27 04:08:49;;;;;;;48.55;21.80;;;0.30;99.90;;;-1.38;100.00;102670.09;4968548;28;20031;-73
2022/03/27 04:11:18;;;;;;;46.78;20.10;;;0.30;99.90;;;-1.38;100.00;102675.28;4952832;28;20105;-74
2022/03/27 04:13:44;;;;;;;73.72;22.63;;;0.30;99.90;;;-1.46;100.00;102682.75;4971485;28;20041;-73
2022/03/27 04:16:13;;;;;;;58.97;21.33;;;0.30;99.90;;;-1.49;100.00;102682.66;4979159;28;20038;-74
2022/03/27 04:18:39;;;;;;;51.50;21.65;;;0.30;99.90;;;-1.47;100.00;102688.75;4974074;28;20023;-73
2022/03/27 04:21:06;;;;;;;50.70;21.38;;;0.20;99.90;;;-1.50;100.00;102680.88;4968078;28;20104;-73
2022/03/27 04:23:33;;;;;;;50.42;20.85;;;0.20;99.90;;;-1.54;100.00;102681.59;4969713;28;20018;-73
2022/03/27 04:26:00;;;;;;;51.83;20.33;;;0.20;99.90;;;-1.62;100.00;102680.47;4984982;28;20032;-74
2022/03/27 04:28:25;;;;;;;48.15;19.90;;;0.10;99.90;;;-1.70;100.00;102680.19;4967069;28;20070;-73
2022/03/27 04:30:51;;;;;;;43.20;19.58;;;0.10;99.90;;;-1.75;100.00;102679.16;4952969;28;20407;-73
2022/03/27 04:33:17;;;;;;;47.03;18.77;;;0.00;99.90;;;-1.75;100.00;102678.25;4961751;28;20479;-73
2022/03/27 04:35:44;;;;;;;44.30;18.17;;;0.00;99.90;;;-1.86;100.00;102683.94;4968449;28;20388;-74
2022/03/27 04:38:10;;;;;;;43.95;19.48;;;0.00;99.90;;;-1.86;100.00;102678.78;4969399;28;20543;-73
2022/03/27 04:40:36;;;;;;;40.08;19.13;;;-0.10;99.90;;;-1.88;100.00;102688.19;4960904;28;20038;-73
2022/03/27 04:43:05;;;;;;;43.13;18.58;;;-0.10;99.90;;;-1.92;100.00;102688.88;4960722;28;20106;-73
2022/03/27 04:45:32;;;;;;;42.22;17.17;;;-0.20;99.90;;;-1.91;100.00;102690.63;4968372;28;20034;-73
2022/03/27 04:47:58;;;;;;;36.92;17.80;;;-0.20;99.90;;;-1.97;100.00;102690.41;4971364;28;20749;-73
2022/03/27 04:50:24;;;;;;;60.28;19.02;;;-0.30;99.90;;;-1.96;100.00;102688.72;4962335;28;20038;-73
2022/03/27 04:52:50;;;;;;;44.80;19.40;;;-0.30;99.90;;;-1.99;100.00;102697.22;4969843;28;20689;-73
2022/03/27 04:55:16;;;;;;;177.50;21.27;;;-0.30;99.90;;;-2.01;100.00;102692.81;4969828;28;20059;-73
2022/03/27 04:57:43;;;;;;;314.85;22.20;;;-0.40;99.90;;;-2.09;100.00;102688.28;4967616;28;20423;-74
2022/03/27 05:00:15;;;;;;;58.08;16.55;;;-0.40;99.90;;;-2.14;100.00;102683.75;4972045;28;20117;-74
2022/03/27 05:02:43;;;;;;;87.70;19.17;;;-0.50;99.90;;;-2.19;100.00;102696.50;4961557;28;20076;-73
2022/03/27 05:05:11;;;;;;;49.20;17.95;;;-0.50;99.90;;;-2.20;100.00;102694.75;4960447;28;20106;-73
2022/03/27 05:07:40;;;;;;;260.08;25.45;;;-0.60;99.90;;;-2.28;100.00;102691.84;4972262;28;25791;-74
2022/03/27 05:10:08;;;;;;;49.63;20.70;;;-0.60;99.90;;;-2.31;100.00;102688.28;4960719;28;20058;-74
2022/03/27 05:12:33;;;;;;;47.67;20.40;;;-0.60;99.90;;;-2.27;100.00;102688.47;4966550;28;20058;-73
2022/03/27 05:14:59;;;;;;;38.28;17.92;;;-0.50;99.90;;;-2.21;100.00;102689.50;4968990;28;20046;-73
2022/03/27 05:17:26;;;;;;;174.88;20.27;;;-0.40;99.90;;;-2.04;100.00;102690.16;4967589;28;20033;-73
2022/03/27 05:19:52;;;;;;;133.93;21.17;;;-0.40;99.90;;;-1.89;100.00;102696.72;4980241;28;20042;-73
2022/03/27 05:22:18;;;;;;;94.60;22.85;;;-0.20;99.90;;;-1.71;100.00;102696.50;4972095;28;20479;-73
2022/03/27 05:24:47;;;;;;;66.35;21.80;;;-0.10;99.90;;;-1.60;100.00;102694.28;4974766;28;20023;-73
2022/03/27 05:27:18;;;;;;;174.68;22.70;;;0.00;99.90;;;-1.47;100.00;102696.50;4973415;28;20109;-73
2022/03/27 05:29:44;;;;;;;230.40;26.58;;;0.10;99.90;;;-1.28;100.00;102689.38;4963844;28;20041;-73
2022/03/27 05:32:10;;;;;;;465.25;31.13;;;0.30;99.90;;;-1.02;100.00;102697.97;4956382;28;20030;-73
2022/03/27 05:34:37;;;;;;;370.15;29.40;;;0.40;99.90;;;-0.77;100.00;102707.44;4974242;28;20053;-74
2022/03/27 05:37:03;;;;;;;387.23;29.33;;;0.60;99.90;;;-0.54;100.00;102705.56;4971986;28;20101;-73
2022/03/27 05:39:29;;;;;;;174.23;29.38;;;0.80;99.90;;;-0.28;100.00;102703.78;4973351;28;20034;-74
2022/03/27 05:41:55;;;;;;;285.75;28.27;;;0.90;99.90;;;-0.03;100.00;102705.34;4963157;28;20509;-74
2022/03/27 05:44:21;;;;;;;350.65;29.58;;;1.10;99.90;;;0.15;100.00;102715.38;4969473;28;20043;-74
2022/03/27 05:46:47;;;;;;;454.42;36.35;;;1.30;99.90;;;0.53;100.00;102712.94;4973075;28;20039;-73
2022/03/27 05:49:13;;;;;;;131.48;26.73;;;1.60;99.90;;;0.86;100.00;102727.59;4970997;28;20050;-74
2022/03/27 05:51:39;;;;;;;366.17;27.23;;;1.80;99.90;;;1.20;100.00;102731.06;4979290;28;20042;-73
2022/03/27 05:54:05;;;;;;;407.88;28.13;;;2.00;99.90;;;1.51;100.00;102737.88;4972693;28;20479;-74
2022/03/27 05:56:31;;;;;;;273.52;28.13;;;2.20;99.90;;;1.69;100.00;102736.53;4972438;28;20023;-74
2022/03/27 05:58:57;;;;;;;127.47;25.17;;;2.40;99.90;;;1.88;100.00;102740.38;4970257;28;20103;-74
2022/03/27 06:01:23;;;;;;;473.85;37.13;;;2.60;99.90;;;2.17;100.00;102749.69;4973297;28;20019;-74
2022/03/27 06:03:49;;;;;;;277.42;29.83;;;2.80;99.90;;;3.53;97.49;102755.56;4968584;28;20101;-73
2022/03/27 06:06:15;;;;;;;172.90;25.75;;;3.30;99.90;;;4.81;91.73;102757.13;4972401;28;20023;-73
2022/03/27 06:08:41;;;;;;;46.70;21.30;;;3.70;99.90;;;4.17;87.06;102747.75;4964943;28;20049;-73
2022/03/27 06:11:07;;;;;;;37.72;19.20;;;3.90;99.90;;;4.59;84.91;102741.25;4970704;28;20023;-74
2022/03/27 06:13:34;;;;;;;45.97;19.63;;;4.00;99.90;;;3.83;83.00;102746.44;4953778;28;20035;-73
2022/03/27 06:16:00;;;;;;;36.67;17.52;;;4.00;99.90;;;4.25;81.98;102758.25;4975257;28;20029;-74
2022/03/27 06:18:26;;;;;;;30.83;17.20;;;4.20;99.90;;;5.05;81.26;102764.31;4963461;28;20391;-74
2022/03/27 06:20:53;;;;;;;34.55;16.15;;;4.40;99.90;;;5.69;78.50;102762.19;4970078;28;20472;-74
2022/03/27 06:23:19;;;;;;;24.45;15.13;;;4.70;99.90;;;5.16;78.61;102760.06;4962902;28;20057;-74
2022/03/27 06:25:45;;;;;;;30.35;15.48;;;5.10;99.90;;;6.96;75.88;102747.88;4957738;28;20493;-74
2022/03/27 06:28:11;;;;;;;22.15;12.55;;;5.40;99.90;;;6.88;74.86;102749.59;4972275;28;20105;-74
2022/03/27 06:30:37;;;;;;;19.42;11.75;;;5.90;99.90;;;8.37;72.54;102742.28;4969588;28;20035;-74
2022/03/27 06:33:04;;;;;;;21.98;12.90;;;6.60;99.90;;;10.78;66.53;102743.44;4961262;28;20038;-74
2022/03/27 06:35:31;;;;;;;20.25;12.30;;;7.40;99.90;;;9.37;65.30;102738.09;4972517;28;20097;-74
2022/03/27 06:37:58;;;;;;;21.30;12.98;;;7.70;99.90;;;9.18;67.30;102743.53;4963707;28;20435;-74
2022/03/27 06:40:24;;;;;;;20.15;12.52;;;8.00;99.90;;;9.53;66.73;102750.22;4962615;28;20061;-74
2022/03/27 06:42:50;;;;;;;22.38;13.02;;;8.20;99.90;;;10.09;65.83;102750.50;4968389;28;20050;-74
2022/03/27 06:45:18;;;;;;;25.40;13.02;;;8.60;99.90;;;11.09;64.63;102765.75;4974042;28;20042;-74
2022/03/27 06:47:45;;;;;;;22.75;12.57;;;9.20;99.90;;;13.34;59.87;102766.41;4973406;28;20065;-74
2022/03/27 06:50:13;;;;;;;18.48;11.75;;;10.50;99.90;;;17.59;51.16;102790.78;4978112;28;20046;-75
2022/03/27 06:52:40;;;;;;;22.42;10.50;;;12.30;99.90;;;20.57;44.22;102788.56;4977607;28;20092;-74
2022/03/27 06:55:09;;;;;;;19.77;10.55;;;14.30;99.90;;;22.73;39.00;102793.34;4968038;28;20111;-75
2022/03/27 06:57:37;;;;;;;19.30;10.30;;;16.30;99.90;;;24.25;36.45;102826.94;4948625;28;20027;-75
2022/03/27 07:03:09;;;;;;;15.93;10.00;;;19.60;99.90;;;26.86;28.87;102857.34;4954813;28;20045;-75
2022/03/27 07:05:45;;;;;;;15.52;9.75;;;21.00;98.30;;;27.85;30.64;102917.56;4970165;28;20080;-75
2022/03/27 07:08:17;;;;;;;16.50;9.00;;;22.00;96.60;;;28.71;29.69;102905.47;4969749;28;20507;-75
2022/03/27 07:10:46;;;;;;;14.18;8.18;;;23.10;93.60;;;29.09;24.70;102906.56;4969274;28;20050;-75
2022/03/27 07:13:15;;;;;;;15.77;8.68;;;23.90;91.20;;;29.47;27.26;102923.88;4960836;28;20027;-75
2022/03/27 07:15:44;;;;;;;13.50;8.18;;;24.60;88.80;;;29.89;26.96;102930.84;4987338;28;20061;-75
2022/03/27 07:18:12;;;;;;;14.00;7.78;;;25.00;87.20;;;29.67;27.16;102927.44;4967569;28;20093;-75
2022/03/27 07:20:41;;;;;;;13.50;7.50;;;25.50;85.80;;;29.76;26.66;102931.16;4959021;28;20042;-76
2022/03/27 07:23:10;;;;;;;11.60;7.07;;;25.90;83.10;;;30.12;25.98;102942.25;4975040;28;20038;-76
2022/03/27 07:25:40;;;;;;;11.45;7.20;;;26.20;83.20;;;29.87;26.26;102946.44;4961663;28;20411;-76
2022/03/27 07:28:09;;;;;;;12.68;7.40;;;26.60;80.90;;;30.26;25.14;102953.50;4970833;28;20499;-76
2022/03/27 07:30:37;;;;;;;11.80;7.65;;;26.90;78.30;;;30.37;25.56;102960.66;4963127;28;20038;-76
2022/03/27 07:33:04;;;;;;;13.68;7.80;;;27.30;79.40;;;30.16;25.56;102962.69;4966641;28;20046;-75
2022/03/27 07:35:30;;;;;;;14.52;7.65;;;27.30;74.30;;;29.39;25.77;102953.56;4968738;28;20169;-75
2022/03/27 07:37:57;;;;;;;11.45;7.78;;;27.10;73.40;;;28.65;26.44;102948.53;4959717;28;20085;-75
2022/03/27 07:40:24;;;;;;;18.00;8.77;;;26.70;74.10;;;27.97;27.14;102949.88;4953120;28;20030;-75
2022/03/27 07:42:51;;;;;;;12.32;7.88;;;26.30;74.10;;;27.38;28.01;102943.09;4958146;28;20512;-75
2022/03/27 07:45:21;;;;;;;10.30;7.05;;;25.90;73.60;;;26.92;28.30;102940.63;4961691;28;20125;-75
2022/03/27 07:47:49;;;;;;;9.30;6.25;;;25.60;74.90;;;26.54;28.62;102942.72;4953537;28;20027;-75
2022/03/27 07:50:17;;;;;;;12.43;6.47;;;25.30;74.20;;;26.17;28.62;102944.75;4952715;28;20503;-75
2022/03/27 07:52:45;;;;;;;14.80;6.90;;;25.10;74.90;;;26.11;28.62;102945.22;4958762;28;20056;-75
2022/03/27 07:55:15;;;;;;;14.68;8.02;;;25.10;75.40;;;26.40;28.76;102957.31;4969856;28;20029;-75
2022/03/27 07:57:42;;;;;;;16.35;7.65;;;25.30;74.80;;;26.05;28.67;102957.38;4970072;28;20571;-75
2022/03/27 08:00:11;;;;;;;14.35;8.07;;;25.30;75.10;;;25.97;28.92;102957.09;4969069;28;20506;-75
2022/03/27 08:02:38;;;;;;;14.40;7.28;;;25.20;74.10;;;25.69;28.91;102955.63;4961166;28;20092;-74
2022/03/27 08:05:06;;;;;;;15.63;6.68;;;25.20;72.50;;;25.51;28.74;102966.00;4967663;28;20507;-74
2022/03/27 08:07:33;;;;;;;12.02;6.30;;;25.00;71.50;;;24.99;29.38;102967.97;4967842;28;20034;-74
2022/03/27 08:09:59;;;;;;;15.38;6.97;;;24.70;69.70;;;24.08;30.31;102962.69;4968059;28;20043;-75
2022/03/27 08:12:27;;;;;;;14.27;6.78;;;24.40;73.40;;;24.02;30.38;102961.31;4968689;28;20034;-74
2022/03/27 08:14:54;;;;;;;13.20;6.88;;;24.20;73.90;;;23.67;31.35;102960.97;4945209;28;20030;-75
2022/03/27 08:17:23;;;;;;;11.30;5.70;;;24.00;72.50;;;23.62;30.79;102969.34;4970043;28;20412;-74
2022/03/27 08:19:50;;;;;;;13.82;7.13;;;24.10;74.30;;;23.79;30.82;102965.56;4964139;28;20033;-74
2022/03/27 08:22:19;;;;;;;14.88;7.72;;;24.20;74.30;;;24.02;30.88;102965.84;4968541;28;20038;-74
2022/03/27 08:24:46;;;;;;;11.73;5.72;;;24.50;73.30;;;24.07;30.23;102969.06;4950776;28;20031;-75
2022/03/27 08:27:12;;;;;;;15.85;7.25;;;24.50;71.50;;;23.50;30.31;102954.91;4954364;28;20039;-75
2022/03/27 08:29:42;;;;;;;14.60;5.57;;;24.40;70.30;;;23.66;30.02;102959.25;4968510;28;20104;-74
2022/03/27 08:32:12;;;;;;;12.63;5.63;;;24.20;70.70;;;23.62;30.06;102963.13;4968174;28;20037;-74
2022/03/27 08:34:41;;;;;;;12.50;5.78;;;24.20;69.30;;;22.81;30.93;102967.41;4960830;28;20050;-74
2022/03/27 08:37:12;;;;;;;8.95;4.50;;;24.10;72.50;;;23.17;30.69;102966.03;4960287;28;20058;-75
2022/03/27 08:39:39;;;;;;;8.95;4.38;;;24.00;69.60;;;22.78;30.34;102972.97;4971526;28;20046;-74
2022/03/27 08:42:07;;;;;;;13.65;5.35;;;23.70;69.50;;;22.53;30.77;102971.81;4970133;28;20114;-74
2022/03/27 08:44:36;;;;;;;11.15;4.78;;;23.50;70.80;;;22.57;31.08;102971.63;4966044;28;20053;-75
2022/03/27 08:47:15;;;;;;;9.90;3.80;;;23.40;71.10;;;22.62;30.92;102978.44;4970429;28;20041;-74
2022/03/27 08:49:59;;;;;;;7.30;3.92;;;23.50;71.60;;;22.91;30.83;102983.78;4982650;28;20250;-74
2022/03/27 08:52:35;;;;;;;9.23;4.30;;;23.40;69.10;;;21.80;31.14;102970.88;4969810;28;20050;-75
2022/03/27 08:55:17;;;;;;;9.52;4.65;;;23.00;71.20;;;21.59;31.60;102963.13;4970319;28;20054;-74
2022/03/27 08:58:03;;;;;;;9.80;4.05;;;22.50;71.00;;;20.71;32.02;102966.28;4973101;28;20460;-74
2022/03/27 09:00:33;;;;;;;6.65;3.45;;;21.80;71.30;;;20.33;32.99;102961.13;4963119;28;20034;-74
2022/03/27 09:03:02;;;;;;;8.30;3.85;;;21.50;72.90;;;20.49;33.78;102945.97;4963831;28;20061;-75
2022/03/27 09:05:29;;;;;;;11.88;3.97;;;21.30;73.50;;;20.40;33.86;102949.16;4973709;28;20507;-74
2022/03/27 09:07:57;;;;;;;8.63;3.85;;;21.20;75.20;;;20.63;34.14;102950.63;4964652;28;20034;-73
2022/03/27 09:10:27;;;;;;;8.10;3.80;;;21.00;71.80;;;20.13;33.16;102944.31;4971088;28;20043;-75
2022/03/27 09:12:55;;;;;;;6.03;3.33;;;20.70;73.90;;;19.53;34.18;102947.31;4970713;28;20022;-75
2022/03/27 09:15:23;;;;;;;5.97;3.13;;;20.20;74.30;;;19.00;35.00;102948.94;4965126;28;20027;-74
2022/03/27 09:18:14;;;;;;;5.32;2.95;;;19.80;75.00;;;18.87;34.53;102939.78;4962239;28;20035;-74
2022/03/27 09:20:47;;;;;;;10.38;3.90;;;19.50;76.20;;;18.80;36.00;102933.00;4964428;28;20045;-74
2022/03/27 09:23:21;;;;;;;12.73;4.78;;;19.30;77.20;;;18.31;36.51;102925.38;4971830;28;20026;-74
2022/03/27 09:25:59;;;;;;;6.38;3.65;;;18.90;77.10;;;17.87;37.06;102930.00;4960579;28;20066;-74
2022/03/27 09:28:41;;;;;;;8.57;3.42;;;18.60;79.10;;;17.38;37.95;102923.06;4972086;28;20038;-74
2022/03/27 09:31:23;;;;;;;7.63;3.17;;;18.20;78.30;;;16.99;38.02;102913.06;4972664;28;20044;-74
2022/03/27 09:34:02;;;;;;;6.40;2.10;;;17.90;77.00;;;16.74;37.82;102925.56;4962002;28;20114;-75
2022/03/27 09:36:31;;;;;;;7.30;2.22;;;17.60;76.70;;;16.59;37.37;102922.53;4965125;28;20130;-74
2022/03/27 09:39:16;;;;;;;5.53;1.80;;;17.50;75.90;;;16.47;36.60;102923.00;4973130;28;20041;-74
2022/03/27 09:41:44;;;;;;;6.38;2.08;;;17.40;78.00;;;16.52;37.94;102915.72;4972907;28;20197;-74
2022/03/27 09:44:16;;;;;;;4.95;2.47;;;17.30;76.60;;;16.37;37.65;102916.25;4987286;28;20383;-74
2022/03/27 09:46:55;;;;;;;5.28;2.08;;;17.30;77.20;;;16.25;37.58;102920.25;4972315;28;20043;-74
2022/03/27 09:49:38;;;;;;;6.82;2.63;;;17.20;76.20;;;16.09;36.80;102925.25;4970698;28;20100;-75
2022/03/27 09:52:20;;;;;;;6.82;2.45;;;17.00;74.90;;;15.88;37.56;102923.31;4973438;28;20050;-74
2022/03/27 09:54:58;;;;;;;4.80;2.10;;;16.70;75.80;;;15.60;37.40;102916.25;4970378;28;20165;-74
2022/03/27 09:57:30;;;;;;;8.48;2.45;;;16.60;77.40;;;15.47;38.21;102914.91;4946268;28;20631;-74
2022/03/27 10:00:13;;;;;;;4.35;2.30;;;16.60;78.30;;;15.57;38.53;102900.38;4970042;28;20046;-74
2022/03/27 10:02:41;;;;;;;5.30;1.92;;;16.60;76.60;;;15.61;37.64;102907.34;4968367;28;20077;-74
2022/03/27 10:05:21;;;;;;;3.78;2.10;;;16.60;76.00;;;15.71;37.63;102915.88;4969285;28;20438;-74
2022/03/27 10:07:50;;;;;;;6.88;2.20;;;16.70;77.80;;;15.81;37.62;102901.41;4954942;28;20026;-74
2022/03/27 10:10:21;;;;;;;7.00;2.03;;;16.80;77.00;;;16.01;37.36;102898.06;4969644;28;20062;-74